»·PEaware :: N3499M KAVX-KSAN

N3499M :: KAVX-KSAN

FLIGHT INFORMATION

Flight Status: Arrived
Operator: Privately registered:
United States
More flights under this callsign
Pilot: Steven N. (12360)
Aircraft: PILATUS PC-12 EAGLE
(PC12)
More flights by this aircraft type
Origin: KAVX Catalina
United States
Destination: KSAN San Diego Intl-Lindbergh
United States
More flights between these airports :: More routes between these airports
Route: +SXC V208 LAX118 CARDI MZB320 MZB
File this flight plan on PilotEdge
Remarks: I-8 rating, request LOC 27 SAN
Altitude:
(Current/Filed)
9,000ft
Speed:
(Current/Filed)
250kts
Departed: 14-Jan-20 08:32 AM
Arrived: 14-Jan-20 09:19 AM
Distance/Time
Traveled:
74nm/0:47
Distance/Time
To Go:
Arrived

Flight Plot

Page will automatically refresh every two minutes.


Map Options




Map Legend


Flown Route
Filed Route
Departure Airport
Arrival Airport
Navaid (VOR, NDB)
Fix

Horizontal Profiles

Position Reports

Time Latitude Longitude Heading Altitude Ground
Speed
14-Jan-20 08:24 33.403881 -118.414878 254 1587ft 0kts
14-Jan-20 08:25 33.403881 -118.414878 254 1587ft 0kts
14-Jan-20 08:26 33.403881 -118.414878 254 1587ft 0kts
14-Jan-20 08:27 33.403881 -118.414878 254 1587ft 0kts
14-Jan-20 08:28 33.403881 -118.414878 254 1587ft 0kts
14-Jan-20 08:29 33.403710 -118.416901 280 1599ft 15kts
14-Jan-20 08:30 33.402293 -118.419598 253 1606ft 0kts
14-Jan-20 08:31 33.403360 -118.418567 54 1604ft 34kts
14-Jan-20 08:32 33.425234 -118.383051 54 2026ft 163kts
14-Jan-20 08:33 33.448410 -118.340052 54 4049ft 161kts
14-Jan-20 08:34 33.475305 -118.289304 54 4986ft 212kts
14-Jan-20 08:36 33.403881 -118.414878 254 1587ft 0kts
14-Jan-20 08:36 33.403881 -118.414878 254 1587ft 0kts
14-Jan-20 08:38 33.403881 -118.414878 254 1587ft 0kts
14-Jan-20 08:38 33.403881 -118.414878 254 1587ft 0kts
14-Jan-20 08:39 33.403881 -118.414878 254 1587ft 0kts
14-Jan-20 08:41 33.403583 -118.416519 296 1597ft 17kts
14-Jan-20 08:41 33.402332 -118.419568 251 1606ft 0kts
14-Jan-20 08:43 33.402332 -118.419568 251 1606ft 0kts
14-Jan-20 08:43 33.412369 -118.404295 52 1891ft 136kts
14-Jan-20 08:44 33.413256 -118.365447 125 3613ft 139kts
14-Jan-20 08:45 33.388431 -118.313579 120 4977ft 219kts
14-Jan-20 08:46 33.361546 -118.260685 118 5679ft 158kts
14-Jan-20 08:47 33.347310 -118.206354 95 7616ft 187kts
14-Jan-20 08:48 33.338983 -118.141167 96 8978ft 222kts
14-Jan-20 08:49 33.328535 -118.063461 96 8978ft 237kts
14-Jan-20 08:50 33.318217 -117.986181 95 8980ft 234kts
14-Jan-20 08:51 33.307952 -117.909440 95 8981ft 233kts
14-Jan-20 08:52 33.297684 -117.833096 94 8981ft 231kts
14-Jan-20 08:53 33.287579 -117.757116 94 8982ft 231kts
14-Jan-20 08:54 33.276514 -117.681443 95 8983ft 231kts
14-Jan-20 08:55 33.264961 -117.605735 95 8983ft 231kts
14-Jan-20 08:56 33.230257 -117.542722 131 8986ft 238kts
14-Jan-20 08:57 33.186125 -117.483831 131 8983ft 238kts
14-Jan-20 08:58 33.140230 -117.426734 140 8979ft 238kts
14-Jan-20 08:59 33.081433 -117.391457 154 8976ft 236kts
14-Jan-20 09:00 33.022710 -117.358184 155 8975ft 232kts
14-Jan-20 09:01 32.964395 -117.325803 156 8972ft 228kts
14-Jan-20 09:02 32.907136 -117.294066 155 8975ft 227kts
14-Jan-20 09:03 32.884257 -117.236422 102 8201ft 188kts
14-Jan-20 09:04 32.870555 -117.180475 118 7181ft 170kts
14-Jan-20 09:05 32.849324 -117.134805 120 6948ft 162kts
14-Jan-20 09:06 32.826672 -117.084799 121 6285ft 172kts
14-Jan-20 09:07 32.801065 -117.036626 121 5279ft 173kts
14-Jan-20 09:08 32.776777 -116.992760 120 4973ft 152kts
14-Jan-20 09:09 32.752384 -116.948501 120 4973ft 164kts
14-Jan-20 09:10 32.717187 -116.921838 190 4764ft 175kts
14-Jan-20 09:11 32.686098 -116.946057 250 3951ft 117kts
14-Jan-20 09:12 32.684481 -116.985721 286 3783ft 113kts
14-Jan-20 09:13 32.693321 -117.024086 288 3132ft 128kts
14-Jan-20 09:14 32.703104 -117.064306 288 2018ft 119kts
14-Jan-20 09:15 32.711266 -117.097948 288 1938ft 100kts
14-Jan-20 09:16 32.719885 -117.133295 287 1053ft 115kts
14-Jan-20 09:17 32.728046 -117.166953 287 322ft 91kts
14-Jan-20 09:18 32.731973 -117.184782 168 17ft 5kts
14-Jan-20 09:19 32.731844 -117.184755 170 17ft 0kts
14-Jan-20 09:20 32.729684 -117.178030 105 17ft 23kts
14-Jan-20 09:21 32.730946 -117.175566 312 22ft 22kts
14-Jan-20 09:22 32.732677 -117.177360 325 21ft 0kts
14-Jan-20 09:23 32.732677 -117.177360 325 21ft 0kts

Navigation Log

Ident Type
Flight plan parsing failed, navigation log unavailable